Time;durP1;ratioP1;P1;durP2;ratioP2;P2;SDS_P1;SDS_P2;PMS_P1;PMS_P2;Temp;Humidity;BMP_temperature;BMP_pressure;BME280_temperature;BME280_humidity;BME280_pressure;Samples;Min_cycle;Max_cycle;Signal;HPM_P1;HPM_P2
2022/03/22 00:02:04;;;;;;;0.80;0.70;;;;;;;;;;5051036;28;20454;-75
2022/03/22 00:04:31;;;;;;;0.80;0.67;;;;;;;;;;5052276;28;20462;-75
2022/03/22 00:06:59;;;;;;;0.73;0.63;;;;;;;;;;5052287;28;20496;-75
2022/03/22 00:09:26;;;;;;;0.70;0.70;;;;;;;;;;5053183;28;20520;-74
2022/03/22 00:11:53;;;;;;;0.70;0.70;;;;;;;;;;5033773;28;20461;-75
2022/03/22 00:14:21;;;;;;;0.70;0.70;;;;;;;;;;5023835;28;20943;-75
2022/03/22 00:17:09;;;;;;;0.70;0.60;;;;;;;;;;5038015;28;20529;-77
2022/03/22 00:19:55;;;;;;;0.70;0.60;;;;;;;;;;5056344;28;20416;-76
2022/03/22 00:22:25;;;;;;;1.17;1.07;;;;;;;;;;5055470;28;20487;-75
2022/03/22 00:24:52;;;;;;;0.70;0.60;;;;;;;;;;5057339;28;20516;-75
2022/03/22 00:27:19;;;;;;;0.70;0.60;;;;;;;;;;5039274;28;20193;-74
2022/03/22 00:29:46;;;;;;;0.80;0.70;;;;;;;;;;5057246;28;20193;-74
2022/03/22 00:32:12;;;;;;;0.80;0.70;;;;;;;;;;5055874;28;20464;-75
2022/03/22 00:34:44;;;;;;;0.70;0.60;;;;;;;;;;5055393;28;20461;-73
2022/03/22 00:37:14;;;;;;;0.70;0.60;;;;;;;;;;5055113;28;20475;-73
2022/03/22 00:39:43;;;;;;;0.70;0.70;;;;;;;;;;5057089;28;20629;-73
2022/03/22 00:42:10;;;;;;;1.33;1.23;;;;;;;;;;5050873;28;20292;-73
2022/03/22 00:44:38;;;;;;;0.70;0.70;;;;;;;;;;5035792;28;20954;-74
2022/03/22 00:47:07;;;;;;;0.70;0.60;;;;;;;;;;5041161;28;20467;-75
2022/03/22 00:49:36;;;;;;;1.53;1.43;;;;;;;;;;5055366;28;20467;-73
2022/03/22 00:52:04;;;;;;;0.70;0.60;;;;;;;;;;5055496;28;20987;-74
2022/03/22 00:54:32;;;;;;;0.70;0.70;;;;;;;;;;5055535;28;20448;-74
2022/03/22 00:57:00;;;;;;;0.70;0.60;;;;;;;;;;5056022;28;20427;-74
2022/03/22 01:02:13;;;;;;;0.93;0.93;;;;;;;;;;5056402;28;20454;-73
2022/03/22 01:04:43;;;;;;;0.70;0.70;;;;;;;;;;5054883;28;20598;-74
2022/03/22 01:07:09;;;;;;;0.80;0.70;;;;;;;;;;5053084;28;20230;-74
2022/03/22 01:09:37;;;;;;;0.70;0.60;;;;;;;;;;5053792;28;20594;-74
2022/03/22 01:12:07;;;;;;;0.70;0.60;;;;;;;;;;5051772;28;20658;-74
2022/03/22 01:14:35;;;;;;;0.70;0.70;;;;;;;;;;5065190;28;20448;-74
2022/03/22 01:17:03;;;;;;;0.70;0.70;;;;;;;;;;5055029;28;20454;-74
2022/03/22 01:19:30;;;;;;;0.70;0.60;;;;;;;;;;5054498;28;20515;-73
2022/03/22 01:21:57;;;;;;;0.80;0.60;;;;;;;;;;5052824;28;20483;-73
2022/03/22 01:24:23;;;;;;;0.70;0.60;;;;;;;;;;5055867;28;20438;-74
2022/03/22 01:26:51;;;;;;;0.70;0.60;;;;;;;;;;5054639;28;20420;-74
2022/03/22 01:29:19;;;;;;;1.23;1.13;;;;;;;;;;5055250;28;20459;-74
2022/03/22 01:31:46;;;;;;;0.80;0.80;;;;;;;;;;5069750;28;20185;-74
2022/03/22 01:34:13;;;;;;;0.70;0.60;;;;;;;;;;5054612;28;20205;-74
2022/03/22 01:36:40;;;;;;;0.70;0.60;;;;;;;;;;5054852;28;20464;-74
2022/03/22 01:39:08;;;;;;;0.70;0.70;;;;;;;;;;5054386;28;20961;-74
2022/03/22 01:41:42;;;;;;;0.80;0.80;;;;;;;;;;5052554;28;20674;-75
2022/03/22 01:44:13;;;;;;;0.70;0.60;;;;;;;;;;5053005;28;20463;-74
2022/03/22 01:46:47;;;;;;;0.70;0.60;;;;;;;;;;5054193;28;20443;-74
2022/03/22 01:49:22;;;;;;;0.80;0.70;;;;;;;;;;5054380;28;20871;-74
2022/03/22 01:51:52;;;;;;;0.70;0.60;;;;;;;;;;5053204;28;20209;-75
2022/03/22 01:54:24;;;;;;;0.70;0.70;;;;;;;;;;5052904;28;20458;-75
2022/03/22 01:56:54;;;;;;;3.57;1.10;;;;;;;;;;5053399;28;20784;-75
2022/03/22 01:59:23;;;;;;;0.70;0.70;;;;;;;;;;5054372;28;20444;-74
2022/03/22 02:07:39;;;;;;;0.70;0.60;;;;;;;;;;5041354;28;20214;-74
2022/03/22 02:10:07;;;;;;;0.70;0.60;;;;;;;;;;5047790;28;20986;-73
2022/03/22 02:12:35;;;;;;;0.80;0.70;;;;;;;;;;5052970;28;20527;-74
2022/03/22 02:15:05;;;;;;;1.17;1.07;;;;;;;;;;5054340;28;20466;-76
2022/03/22 02:17:46;;;;;;;0.77;0.70;;;;;;;;;;5054458;28;20478;-74
2022/03/22 02:20:15;;;;;;;0.70;0.60;;;;;;;;;;5051776;28;20542;-74
2022/03/22 02:22:46;;;;;;;0.90;0.90;;;;;;;;;;5053957;28;20499;-73
2022/03/22 02:25:18;;;;;;;0.77;0.70;;;;;;;;;;5054255;28;20459;-74
2022/03/22 02:27:54;;;;;;;0.70;0.60;;;;;;;;;;5034767;28;20170;-74
2022/03/22 02:30:23;;;;;;;0.77;0.68;;;;;;;;;;5033485;28;20215;-73
2022/03/22 02:32:52;;;;;;;1.02;1.02;;;;;;;;;;5035215;28;20199;-75
2022/03/22 02:35:23;;;;;;;0.70;0.60;;;;;;;;;;5052784;28;20206;-74
2022/03/22 02:37:53;;;;;;;0.70;0.70;;;;;;;;;;5058863;28;20622;-75
2022/03/22 02:40:28;;;;;;;1.55;1.45;;;;;;;;;;5053192;28;20281;-74
2022/03/22 02:42:59;;;;;;;0.70;0.70;;;;;;;;;;5055090;28;20215;-75
2022/03/22 02:45:29;;;;;;;1.58;1.48;;;;;;;;;;5052556;28;20178;-75
2022/03/22 02:48:07;;;;;;;0.70;0.60;;;;;;;;;;5050317;28;20191;-74
2022/03/22 02:50:40;;;;;;;0.70;0.70;;;;;;;;;;5033144;28;20309;-74
2022/03/22 02:53:09;;;;;;;0.70;0.68;;;;;;;;;;5049594;28;20619;-75
2022/03/22 02:55:39;;;;;;;0.80;0.80;;;;;;;;;;5052699;28;20230;-74
2022/03/22 02:58:05;;;;;;;1.00;0.95;;;;;;;;;;5053625;28;20208;-73
2022/03/22 03:00:34;;;;;;;0.70;0.60;;;;;;;;;;5052584;28;20584;-74
2022/03/22 03:03:03;;;;;;;0.80;0.80;;;;;;;;;;5052545;28;20212;-74
2022/03/22 03:05:30;;;;;;;0.80;0.70;;;;;;;;;;5052441;28;20202;-73
2022/03/22 03:07:57;;;;;;;0.70;0.60;;;;;;;;;;5069558;28;20186;-75
2022/03/22 03:10:24;;;;;;;0.70;0.70;;;;;;;;;;5054046;28;20201;-74
2022/03/22 03:12:58;;;;;;;0.75;0.70;;;;;;;;;;5052219;28;20204;-76
2022/03/22 03:15:25;;;;;;;0.70;0.60;;;;;;;;;;5051649;28;20258;-75
2022/03/22 03:17:52;;;;;;;0.80;0.73;;;;;;;;;;5054106;28;20189;-74
2022/03/22 03:20:19;;;;;;;0.70;0.70;;;;;;;;;;5036615;28;20212;-75
2022/03/22 03:22:46;;;;;;;0.70;0.60;;;;;;;;;;5051873;28;20218;-75
2022/03/22 03:25:14;;;;;;;0.70;0.70;;;;;;;;;;5069273;28;20673;-75
2022/03/22 03:27:41;;;;;;;1.05;0.95;;;;;;;;;;5062017;28;20575;-75
2022/03/22 03:30:11;;;;;;;0.80;0.80;;;;;;;;;;5043775;28;20580;-75
2022/03/22 03:32:40;;;;;;;0.70;0.70;;;;;;;;;;5052998;28;20205;-74
2022/03/22 03:35:07;;;;;;;0.70;0.70;;;;;;;;;;5052535;28;20265;-74
2022/03/22 03:37:37;;;;;;;0.70;0.70;;;;;;;;;;5068073;28;20619;-74
2022/03/22 03:40:05;;;;;;;0.70;0.70;;;;;;;;;;5052534;28;20288;-73
2022/03/22 03:42:33;;;;;;;0.80;0.70;;;;;;;;;;5051288;28;20673;-74
2022/03/22 03:47:46;;;;;;;0.70;0.70;;;;;;;;;;5051595;28;20211;-73
2022/03/22 03:50:13;;;;;;;1.70;1.60;;;;;;;;;;5053644;28;20209;-75
2022/03/22 03:52:41;;;;;;;0.77;0.77;;;;;;;;;;5049124;28;20645;-74
2022/03/22 03:55:08;;;;;;;0.70;0.60;;;;;;;;;;5036273;28;20220;-75
2022/03/22 03:57:36;;;;;;;0.70;0.70;;;;;;;;;;5052394;28;20564;-74
2022/03/22 04:00:03;;;;;;;0.80;0.70;;;;;;;;;;5052598;28;20244;-73
2022/03/22 04:02:37;;;;;;;0.70;0.60;;;;;;;;;;5053507;28;20182;-75
2022/03/22 04:05:07;;;;;;;0.75;0.70;;;;;;;;;;5052972;28;20243;-74
2022/03/22 04:07:34;;;;;;;0.80;0.70;;;;;;;;;;5050754;28;20236;-74
2022/03/22 04:10:34;;;;;;;0.80;0.77;;;;;;;;;;5064878;28;20356;-74
2022/03/22 04:13:01;;;;;;;0.80;0.70;;;;;;;;;;5040276;28;20224;-75
2022/03/22 04:15:29;;;;;;;0.80;0.80;;;;;;;;;;5053551;28;20596;-77
2022/03/22 04:17:59;;;;;;;0.80;0.80;;;;;;;;;;5051187;28;20247;-75
2022/03/22 04:20:27;;;;;;;0.70;0.70;;;;;;;;;;5053751;28;20672;-75
2022/03/22 04:23:11;;;;;;;0.90;0.90;;;;;;;;;;5050085;28;20300;-74
2022/03/22 04:25:56;;;;;;;0.80;0.70;;;;;;;;;;5052213;28;20185;-74
2022/03/22 04:34:13;;;;;;;0.80;0.80;;;;;;;;;;5051088;28;20292;-74
2022/03/22 04:36:44;;;;;;;0.70;0.70;;;;;;;;;;5031347;28;20230;-73
2022/03/22 04:39:11;;;;;;;0.80;0.80;;;;;;;;;;5035040;28;20190;-73
2022/03/22 04:41:37;;;;;;;0.80;0.80;;;;;;;;;;5047179;28;20603;-75
2022/03/22 04:44:04;;;;;;;0.75;0.75;;;;;;;;;;5044359;28;20218;-74
2022/03/22 04:46:31;;;;;;;0.80;0.70;;;;;;;;;;5034441;28;20185;-74
2022/03/22 04:48:58;;;;;;;1.27;1.17;;;;;;;;;;5051072;28;20212;-74
2022/03/22 04:56:58;;;;;;;0.80;0.70;;;;;;;;;;5052070;28;20235;-74
2022/03/22 04:59:24;;;;;;;0.80;0.70;;;;;;;;;;5052001;28;20173;-75
2022/03/22 05:01:53;;;;;;;0.70;0.70;;;;;;;;;;5049296;28;20216;-74
2022/03/22 05:04:20;;;;;;;0.80;0.70;;;;;;;;;;5050894;28;20534;-73
2022/03/22 05:06:46;;;;;;;0.73;0.70;;;;;;;;;;5069290;28;20221;-74
2022/03/22 05:09:14;;;;;;;0.90;0.90;;;;;;;;;;5055626;28;20276;-74
2022/03/22 05:11:42;;;;;;;0.73;0.70;;;;;;;;;;5053255;28;20281;-75
2022/03/22 05:14:08;;;;;;;0.70;0.60;;;;;;;;;;5054791;28;20181;-74
2022/03/22 05:16:35;;;;;;;1.17;1.08;;;;;;;;;;5051006;28;20190;-75
2022/03/22 05:19:04;;;;;;;0.80;0.80;;;;;;;;;;5053117;28;20236;-75
2022/03/22 05:21:31;;;;;;;0.70;0.70;;;;;;;;;;5069062;28;20206;-74
2022/03/22 05:23:59;;;;;;;0.73;0.70;;;;;;;;;;5054357;28;20185;-76
2022/03/22 05:26:27;;;;;;;0.80;0.80;;;;;;;;;;5053164;28;20241;-76
2022/03/22 05:28:54;;;;;;;0.70;0.70;;;;;;;;;;5053065;28;20197;-77
2022/03/22 05:31:21;;;;;;;0.70;0.70;;;;;;;;;;5054610;28;20281;-75
2022/03/22 05:33:52;;;;;;;0.70;0.60;;;;;;;;;;5055548;28;20228;-74
2022/03/22 05:36:19;;;;;;;0.75;0.70;;;;;;;;;;5055118;28;20263;-74
2022/03/22 05:38:47;;;;;;;0.70;0.70;;;;;;;;;;5053950;28;20208;-75
2022/03/22 05:41:14;;;;;;;0.70;0.70;;;;;;;;;;5053137;28;20213;-74
2022/03/22 05:43:42;;;;;;;0.70;0.70;;;;;;;;;;5053522;28;20186;-74
2022/03/22 05:46:10;;;;;;;0.70;0.70;;;;;;;;;;5052794;28;20231;-75
2022/03/22 05:48:39;;;;;;;0.70;0.70;;;;;;;;;;5037626;28;20193;-75
2022/03/22 05:51:06;;;;;;;0.70;0.70;;;;;;;;;;5053935;28;20263;-75
2022/03/22 05:53:33;;;;;;;0.80;0.80;;;;;;;;;;5053687;28;20207;-75
2022/03/22 05:56:02;;;;;;;0.70;0.70;;;;;;;;;;5054018;28;20209;-75
2022/03/22 05:58:28;;;;;;;0.73;0.68;;;;;;;;;;5054417;28;20531;-74
2022/03/22 06:00:57;;;;;;;0.70;0.70;;;;;;;;;;5054595;28;20654;-75
2022/03/22 06:03:24;;;;;;;0.80;0.73;;;;;;;;;;5054286;28;20216;-75
2022/03/22 06:05:52;;;;;;;0.80;0.80;;;;;;;;;;5053159;28;20197;-75
2022/03/22 06:08:21;;;;;;;0.70;0.60;;;;;;;;;;5057028;28;20239;-75
2022/03/22 06:10:47;;;;;;;0.80;0.70;;;;;;;;;;5070867;28;20197;-76
2022/03/22 06:13:14;;;;;;;0.90;0.90;;;;;;;;;;5053337;28;20201;-75
2022/03/22 06:15:43;;;;;;;0.70;0.70;;;;;;;;;;5054858;28;20276;-76
2022/03/22 06:18:12;;;;;;;0.75;0.70;;;;;;;;;;5053112;28;20247;-75
2022/03/22 06:20:43;;;;;;;1.85;1.75;;;;;;;;;;5054946;28;20173;-77
2022/03/22 06:23:11;;;;;;;3.00;2.05;;;;;;;;;;5053784;28;20201;-75
2022/03/22 06:25:38;;;;;;;0.80;0.70;;;;;;;;;;5054987;28;20185;-75
2022/03/22 06:28:06;;;;;;;0.75;0.75;;;;;;;;;;5053909;28;20399;-74
2022/03/22 06:30:34;;;;;;;1.35;1.25;;;;;;;;;;5052718;28;20686;-74
2022/03/22 06:33:01;;;;;;;0.70;0.60;;;;;;;;;;5054717;28;20193;-74
2022/03/22 06:35:30;;;;;;;0.80;0.70;;;;;;;;;;5052864;28;20251;-73
2022/03/22 06:37:59;;;;;;;0.80;0.70;;;;;;;;;;5043199;28;20212;-74
2022/03/22 06:40:28;;;;;;;0.70;0.60;;;;;;;;;;5049542;28;20186;-74
2022/03/22 06:42:55;;;;;;;0.80;0.70;;;;;;;;;;5053558;28;20275;-74
2022/03/22 06:45:22;;;;;;;0.70;0.60;;;;;;;;;;5036750;28;20228;-75
2022/03/22 06:47:49;;;;;;;0.80;0.70;;;;;;;;;;5053376;28;20186;-76
2022/03/22 06:50:18;;;;;;;0.80;0.70;;;;;;;;;;5052446;28;20216;-76
2022/03/22 06:52:47;;;;;;;0.70;0.70;;;;;;;;;;5052060;28;20547;-76
2022/03/22 06:55:16;;;;;;;1.83;1.67;;;;;;;;;;5053019;28;20200;-74
2022/03/22 06:58:04;;;;;;;0.70;0.60;;;;;;;;;;5054361;28;20177;-75
2022/03/22 07:00:32;;;;;;;0.70;0.70;;;;;;;;;;5053238;28;20416;-74
2022/03/22 07:03:03;;;;;;;0.70;0.60;;;;;;;;;;5053178;28;20431;-73
2022/03/22 07:05:30;;;;;;;0.70;0.70;;;;;;;;;;5052745;28;20443;-75
2022/03/22 07:07:58;;;;;;;0.80;0.70;;;;;;;;;;5049569;28;21002;-74
2022/03/22 07:10:25;;;;;;;0.70;0.70;;;;;;;;;;5051404;28;20947;-74
2022/03/22 07:12:54;;;;;;;0.70;0.60;;;;;;;;;;5053266;28;20459;-73
2022/03/22 07:15:23;;;;;;;0.80;0.70;;;;;;;;;;5053175;28;20440;-74
2022/03/22 07:17:52;;;;;;;0.77;0.77;;;;;;;;;;5053972;28;20432;-73
2022/03/22 07:20:20;;;;;;;0.70;0.70;;;;;;;;;;5069414;28;20435;-73
2022/03/22 07:22:46;;;;;;;0.70;0.70;;;;;;;;;;5052224;28;20456;-75
2022/03/22 07:25:15;;;;;;;0.70;0.60;;;;;;;;;;5052302;28;20931;-75
2022/03/22 07:27:42;;;;;;;2.17;1.83;;;;;;;;;;5051431;28;20956;-75
2022/03/22 07:30:11;;;;;;;1.47;1.37;;;;;;;;;;5052291;28;20435;-75
2022/03/22 07:32:38;;;;;;;0.70;0.60;;;;;;;;;;5053756;28;20471;-74
2022/03/22 07:35:06;;;;;;;0.70;0.70;;;;;;;;;;5069287;28;20515;-74
2022/03/22 07:37:34;;;;;;;0.80;0.70;;;;;;;;;;5053511;28;20452;-74
2022/03/22 07:40:02;;;;;;;1.10;1.00;;;;;;;;;;5053657;28;20462;-75
2022/03/22 07:42:31;;;;;;;0.70;0.70;;;;;;;;;;5050379;28;20934;-75
2022/03/22 07:45:00;;;;;;;0.90;0.90;;;;;;;;;;5068607;28;20986;-74
2022/03/22 07:47:28;;;;;;;1.73;1.00;;;;;;;;;;5067997;28;20451;-74
2022/03/22 07:55:40;;;;;;;1.40;1.30;;;;;;;;;;5030325;28;20480;-73
2022/03/22 07:58:09;;;;;;;1.67;1.57;;;;;;;;;;5052034;28;20501;-72
2022/03/22 08:00:39;;;;;;;1.10;1.00;;;;;;;;;;5051436;28;20472;-72
2022/03/22 08:03:08;;;;;;;0.70;0.60;;;;;;;;;;5053295;28;20485;-73
2022/03/22 08:05:39;;;;;;;0.77;0.67;;;;;;;;;;5051786;28;20770;-74
2022/03/22 08:08:06;;;;;;;1.00;0.90;;;;;;;;;;5034586;28;20453;-74
2022/03/22 08:10:56;;;;;;;2.30;1.27;;;;;;;;;;5052307;28;20471;-74
2022/03/22 08:13:26;;;;;;;0.80;0.70;;;;;;;;;;5053763;28;20531;-77
2022/03/22 08:15:56;;;;;;;0.80;0.70;;;;;;;;;;5055501;28;20418;-75
2022/03/22 08:18:22;;;;;;;0.73;0.67;;;;;;;;;;5060904;28;20539;-75
2022/03/22 08:20:50;;;;;;;1.77;1.63;;;;;;;;;;5059427;28;20436;-76
2022/03/22 08:23:17;;;;;;;1.60;1.43;;;;;;;;;;5058437;28;20416;-74
2022/03/22 08:25:46;;;;;;;1.33;1.23;;;;;;;;;;5055756;28;20450;-75
2022/03/22 08:28:12;;;;;;;1.30;1.20;;;;;;;;;;5052164;28;20497;-74
2022/03/22 08:30:42;;;;;;;0.80;0.77;;;;;;;;;;5052420;28;20517;-72
2022/03/22 08:33:09;;;;;;;1.50;1.40;;;;;;;;;;5053547;28;20510;-74
2022/03/22 08:35:38;;;;;;;0.90;0.80;;;;;;;;;;5051171;28;20444;-72
2022/03/22 08:38:06;;;;;;;2.50;1.77;;;;;;;;;;5052377;28;20897;-74
2022/03/22 08:40:34;;;;;;;0.90;0.90;;;;;;;;;;5056260;28;20428;-75
2022/03/22 08:43:05;;;;;;;0.80;0.70;;;;;;;;;;5056398;28;20443;-74
2022/03/22 08:45:33;;;;;;;2.23;0.80;;;;;;;;;;5057303;28;20419;-74
2022/03/22 08:48:09;;;;;;;2.40;1.33;;;;;;;;;;5072844;28;20906;-75
2022/03/22 08:50:38;;;;;;;0.87;0.80;;;;;;;;;;5072207;28;20416;-74
2022/03/22 08:53:06;;;;;;;1.30;1.20;;;;;;;;;;5056818;28;20488;-75
2022/03/22 08:55:45;;;;;;;2.20;1.37;;;;;;;;;;5057510;28;20423;-74
2022/03/22 08:58:12;;;;;;;1.37;1.27;;;;;;;;;;5055463;28;20409;-75
2022/03/22 09:00:40;;;;;;;0.80;0.70;;;;;;;;;;5054695;28;20433;-75
2022/03/22 09:03:10;;;;;;;2.10;1.63;;;;;;;;;;5054972;28;20448;-74
2022/03/22 09:08:23;;;;;;;1.40;1.10;;;;;;;;;;5057745;28;20430;-77
2022/03/22 09:10:52;;;;;;;1.20;1.10;;;;;;;;;;5059222;28;20409;-76
2022/03/22 09:13:19;;;;;;;1.30;1.17;;;;;;;;;;5058123;28;20443;-74
2022/03/22 09:15:48;;;;;;;4.50;1.37;;;;;;;;;;5056151;28;20414;-74
2022/03/22 09:18:21;;;;;;;0.80;0.70;;;;;;;;;;5055527;28;20415;-74
2022/03/22 09:20:49;;;;;;;1.53;1.43;;;;;;;;;;5055095;28;20414;-74
2022/03/22 09:23:17;;;;;;;0.70;0.60;;;;;;;;;;5056237;28;20428;-75
2022/03/22 09:25:47;;;;;;;4.53;1.20;;;;;;;;;;5070108;28;20468;-75
2022/03/22 09:28:13;;;;;;;0.80;0.73;;;;;;;;;;5055886;28;20531;-76
2022/03/22 09:30:41;;;;;;;3.47;1.17;;;;;;;;;;5054799;28;21002;-76
2022/03/22 09:33:11;;;;;;;0.80;0.80;;;;;;;;;;5056070;28;20570;-74
2022/03/22 09:35:42;;;;;;;1.60;1.50;;;;;;;;;;5054732;28;21105;-75
2022/03/22 09:38:15;;;;;;;1.40;1.30;;;;;;;;;;5069960;28;20447;-73
2022/03/22 09:41:07;;;;;;;0.80;0.80;;;;;;;;;;5054201;28;20446;-74
2022/03/22 09:43:35;;;;;;;5.60;1.73;;;;;;;;;;5053438;28;20480;-74
2022/03/22 09:46:07;;;;;;;1.60;1.50;;;;;;;;;;5054479;28;20443;-74
2022/03/22 09:48:34;;;;;;;1.00;0.77;;;;;;;;;;5055574;28;20432;-75
2022/03/22 09:53:51;;;;;;;0.87;0.80;;;;;;;;;;5054391;28;20448;-72
2022/03/22 09:56:20;;;;;;;0.80;0.77;;;;;;;;;;5055114;28;20428;-75
2022/03/22 09:58:48;;;;;;;1.37;1.27;;;;;;;;;;5071155;28;20417;-75
2022/03/22 10:01:14;;;;;;;1.00;0.80;;;;;;;;;;5036073;28;20519;-75
2022/03/22 10:03:41;;;;;;;0.80;0.60;;;;;;;;;;5035084;28;20435;-74
2022/03/22 10:06:10;;;;;;;2.73;1.60;;;;;;;;;;5034922;28;20437;-75
2022/03/22 10:08:37;;;;;;;1.23;1.13;;;;;;;;;;5067345;28;20498;-74
2022/03/22 10:11:05;;;;;;;2.50;1.33;;;;;;;;;;5054210;28;20443;-74
2022/03/22 10:13:35;;;;;;;1.20;1.10;;;;;;;;;;5052991;28;20432;-73
2022/03/22 10:16:06;;;;;;;1.10;1.00;;;;;;;;;;5055406;28;20576;-75
2022/03/22 10:18:36;;;;;;;0.73;0.60;;;;;;;;;;5054795;28;20511;-74
2022/03/22 10:21:04;;;;;;;1.40;1.30;;;;;;;;;;5055556;28;20444;-73
2022/03/22 10:23:33;;;;;;;0.70;0.60;;;;;;;;;;5053404;28;20971;-73
2022/03/22 10:26:03;;;;;;;1.67;1.10;;;;;;;;;;5054616;28;20408;-74
2022/03/22 10:28:30;;;;;;;0.90;0.83;;;;;;;;;;5052499;28;20452;-74
2022/03/22 10:30:57;;;;;;;3.27;1.17;;;;;;;;;;5054896;28;20447;-75
2022/03/22 10:33:25;;;;;;;0.90;0.90;;;;;;;;;;5037057;28;20479;-75
2022/03/22 10:35:56;;;;;;;2.27;2.07;;;;;;;;;;5056154;28;20536;-76
2022/03/22 10:38:23;;;;;;;1.83;1.33;;;;;;;;;;5053118;28;20458;-76
2022/03/22 10:40:52;;;;;;;2.60;0.80;;;;;;;;;;5055084;28;20428;-75
2022/03/22 10:43:20;;;;;;;0.80;0.60;;;;;;;;;;5053600;28;20477;-75
2022/03/22 10:45:52;;;;;;;1.90;1.47;;;;;;;;;;5053519;28;20536;-75
2022/03/22 10:48:20;;;;;;;2.33;1.10;;;;;;;;;;5053202;28;20808;-75
2022/03/22 10:50:48;;;;;;;1.37;0.90;;;;;;;;;;5051349;28;20454;-76
2022/03/22 10:53:17;;;;;;;1.67;0.80;;;;;;;;;;5034225;28;20524;-75
2022/03/22 10:55:45;;;;;;;1.90;1.80;;;;;;;;;;5033445;28;20851;-75
2022/03/22 10:58:14;;;;;;;0.80;0.63;;;;;;;;;;5049852;28;20444;-75
2022/03/22 11:00:42;;;;;;;1.47;1.30;;;;;;;;;;5053325;28;20443;-76
2022/03/22 11:03:10;;;;;;;1.30;1.10;;;;;;;;;;5050846;28;20502;-76
2022/03/22 11:05:38;;;;;;;0.97;0.87;;;;;;;;;;5052788;28;20424;-76
2022/03/22 11:08:05;;;;;;;0.80;0.70;;;;;;;;;;5047595;28;20452;-76
2022/03/22 11:10:32;;;;;;;0.80;0.80;;;;;;;;;;5034119;28;20425;-75
2022/03/22 11:13:00;;;;;;;0.73;0.70;;;;;;;;;;5036318;28;20460;-75
2022/03/22 11:15:32;;;;;;;5.70;1.13;;;;;;;;;;5036677;28;20446;-75
2022/03/22 11:18:00;;;;;;;0.70;0.70;;;;;;;;;;5034447;28;20501;-75
2022/03/22 11:20:27;;;;;;;0.70;0.60;;;;;;;;;;5033186;28;20989;-75
2022/03/22 11:23:00;;;;;;;0.80;0.67;;;;;;;;;;5032443;28;20436;-74
2022/03/22 11:25:30;;;;;;;1.57;1.47;;;;;;;;;;5033747;28;20432;-74
2022/03/22 11:27:59;;;;;;;1.10;1.00;;;;;;;;;;5032274;28;20941;-76
2022/03/22 11:30:29;;;;;;;5.03;1.33;;;;;;;;;;5032718;28;20949;-76
2022/03/22 11:36:13;;;;;;;1.27;1.17;;;;;;;;;;5044494;28;20467;-75
2022/03/22 11:38:42;;;;;;;0.90;0.80;;;;;;;;;;5052495;28;20940;-73
2022/03/22 11:44:08;;;;;;;0.80;0.80;;;;;;;;;;5052293;28;20566;-74
2022/03/22 11:46:37;;;;;;;1.20;1.00;;;;;;;;;;5033300;28;20502;-76
2022/03/22 11:49:26;;;;;;;0.80;0.70;;;;;;;;;;5052642;28;20423;-74
2022/03/22 11:52:18;;;;;;;0.97;0.90;;;;;;;;;;5052422;28;20469;-74
2022/03/22 11:54:55;;;;;;;1.00;0.90;;;;;;;;;;5068467;28;20747;-72
2022/03/22 11:57:22;;;;;;;3.70;1.50;;;;;;;;;;5053723;28;20406;-75
2022/03/22 11:59:54;;;;;;;1.63;1.53;;;;;;;;;;5051716;28;20964;-76
2022/03/22 12:02:27;;;;;;;1.17;0.90;;;;;;;;;;5052475;28;20459;-77
2022/03/22 12:05:01;;;;;;;1.43;0.90;;;;;;;;;;5053291;28;20781;-75
2022/03/22 12:07:30;;;;;;;0.80;0.80;;;;;;;;;;5051092;28;20450;-77
2022/03/22 12:10:06;;;;;;;1.33;1.23;;;;;;;;;;5052710;28;20422;-76
2022/03/22 12:12:37;;;;;;;1.03;0.93;;;;;;;;;;5068604;28;20488;-76
2022/03/22 12:15:05;;;;;;;1.10;1.00;;;;;;;;;;5054458;28;20447;-76
2022/03/22 12:17:33;;;;;;;0.87;0.80;;;;;;;;;;5056448;28;20432;-76
2022/03/22 12:20:04;;;;;;;1.03;0.93;;;;;;;;;;5071838;28;20950;-77
2022/03/22 12:22:31;;;;;;;1.10;1.00;;;;;;;;;;5056527;28;20433;-76
2022/03/22 12:25:00;;;;;;;1.30;1.20;;;;;;;;;;5057500;28;20410;-76
2022/03/22 12:27:27;;;;;;;1.00;0.90;;;;;;;;;;5056631;28;20795;-76
2022/03/22 12:29:55;;;;;;;1.30;1.20;;;;;;;;;;5056195;28;20391;-76
2022/03/22 12:32:22;;;;;;;1.03;0.93;;;;;;;;;;5057007;28;20463;-77
2022/03/22 12:34:51;;;;;;;0.80;0.80;;;;;;;;;;5057363;28;20489;-76
2022/03/22 12:37:18;;;;;;;1.93;1.27;;;;;;;;;;5054486;28;20536;-75
2022/03/22 12:39:49;;;;;;;1.00;1.00;;;;;;;;;;5054541;28;20444;-75
2022/03/22 12:42:26;;;;;;;0.80;0.70;;;;;;;;;;5055105;28;20457;-75
2022/03/22 12:44:57;;;;;;;0.70;0.70;;;;;;;;;;5055892;28;20448;-76
2022/03/22 12:47:37;;;;;;;1.53;1.10;;;;;;;;;;5056222;28;20891;-76
2022/03/22 12:50:07;;;;;;;0.90;0.90;;;;;;;;;;5072224;28;20462;-75
2022/03/22 12:52:34;;;;;;;0.77;0.73;;;;;;;;;;5054264;28;20479;-76
2022/03/22 12:55:03;;;;;;;0.80;0.80;;;;;;;;;;5071041;28;20780;-76
2022/03/22 12:57:30;;;;;;;0.87;0.83;;;;;;;;;;5037687;28;20456;-75
2022/03/22 12:59:57;;;;;;;0.80;0.70;;;;;;;;;;5056137;28;20463;-76
2022/03/22 13:02:24;;;;;;;0.80;0.80;;;;;;;;;;5056939;28;20423;-76
2022/03/22 13:04:53;;;;;;;0.90;0.90;;;;;;;;;;5056917;28;20430;-76
2022/03/22 13:07:23;;;;;;;1.50;1.40;;;;;;;;;;5056363;28;20571;-77
2022/03/22 13:12:35;;;;;;;1.23;1.13;;;;;;;;;;5057821;28;20464;-76
2022/03/22 13:15:06;;;;;;;0.70;0.70;;;;;;;;;;5059848;28;20428;-76
2022/03/22 13:17:37;;;;;;;0.80;0.80;;;;;;;;;;5064538;28;20442;-78
2022/03/22 13:20:07;;;;;;;0.70;0.70;;;;;;;;;;5046165;28;20837;-76
2022/03/22 13:22:35;;;;;;;2.30;1.17;;;;;;;;;;5055315;28;20482;-74
2022/03/22 13:25:05;;;;;;;1.13;0.97;;;;;;;;;;5054904;28;20444;-75
2022/03/22 13:27:32;;;;;;;0.70;0.70;;;;;;;;;;5060959;28;20424;-76
2022/03/22 13:30:03;;;;;;;0.80;0.70;;;;;;;;;;5060764;28;20474;-76
2022/03/22 13:32:31;;;;;;;1.13;0.87;;;;;;;;;;5054213;28;20534;-76
2022/03/22 13:35:02;;;;;;;0.80;0.80;;;;;;;;;;5058576;28;20447;-77
2022/03/22 13:37:29;;;;;;;0.80;0.67;;;;;;;;;;5059030;28;20443;-76
2022/03/22 13:40:06;;;;;;;1.00;0.83;;;;;;;;;;5052832;28;20491;-76
2022/03/22 13:42:34;;;;;;;1.10;1.00;;;;;;;;;;5055666;28;20429;-78
2022/03/22 13:45:04;;;;;;;0.80;0.73;;;;;;;;;;5052753;28;20444;-77
2022/03/22 13:47:55;;;;;;;0.80;0.80;;;;;;;;;;5069006;28;21020;-76
2022/03/22 13:50:24;;;;;;;1.60;1.17;;;;;;;;;;5070642;28;20518;-76
2022/03/22 13:52:59;;;;;;;1.80;1.60;;;;;;;;;;5070136;28;20452;-75
2022/03/22 13:55:29;;;;;;;1.00;0.97;;;;;;;;;;5053243;28;20422;-77
2022/03/22 13:57:56;;;;;;;2.00;1.90;;;;;;;;;;5055656;28;20832;-77
2022/03/22 14:00:47;;;;;;;1.00;0.80;;;;;;;;;;5056035;28;20493;-77
2022/03/22 14:03:14;;;;;;;0.77;0.67;;;;;;;;;;5054387;28;20440;-77
2022/03/22 14:05:42;;;;;;;0.90;0.80;;;;;;;;;;5053781;28;20447;-78
2022/03/22 14:08:13;;;;;;;0.80;0.70;;;;;;;;;;5051784;28;20964;-78
2022/03/22 14:10:43;;;;;;;0.80;0.80;;;;;;;;;;5048570;28;20459;-76
2022/03/22 14:13:10;;;;;;;0.80;0.70;;;;;;;;;;5054517;28;20471;-78
2022/03/22 14:15:37;;;;;;;0.73;0.70;;;;;;;;;;5035798;28;20448;-75
2022/03/22 14:18:05;;;;;;;0.80;0.70;;;;;;;;;;5053470;28;20466;-78
2022/03/22 14:20:31;;;;;;;0.70;0.60;;;;;;;;;;5054633;28;20454;-74
2022/03/22 14:22:59;;;;;;;0.80;0.70;;;;;;;;;;5062083;28;20456;-76
2022/03/22 14:25:34;;;;;;;1.13;1.03;;;;;;;;;;5058111;28;20450;-76
2022/03/22 14:28:05;;;;;;;1.37;1.17;;;;;;;;;;5062108;28;20391;-77
2022/03/22 14:30:33;;;;;;;0.80;0.73;;;;;;;;;;5055499;28;20442;-78
2022/03/22 14:33:01;;;;;;;0.70;0.60;;;;;;;;;;5037714;28;20476;-78
2022/03/22 14:35:53;;;;;;;0.80;0.67;;;;;;;;;;5052498;28;20490;-79
2022/03/22 14:38:22;;;;;;;0.80;0.80;;;;;;;;;;5055385;28;20781;-77
2022/03/22 14:40:51;;;;;;;0.80;0.73;;;;;;;;;;5054719;28;20423;-77
2022/03/22 14:43:23;;;;;;;0.80;0.70;;;;;;;;;;5054533;28;20541;-78
2022/03/22 14:46:16;;;;;;;1.10;0.97;;;;;;;;;;5063190;28;20951;-77
2022/03/22 14:48:43;;;;;;;0.70;0.60;;;;;;;;;;5053717;28;20509;-77
2022/03/22 14:51:10;;;;;;;1.10;1.00;;;;;;;;;;5054717;28;20441;-77
2022/03/22 14:59:10;;;;;;;7.43;1.57;;;;;;;;;;5053307;28;20521;-78
2022/03/22 15:01:40;;;;;;;1.20;1.10;;;;;;;;;;5046498;28;20489;-78
2022/03/22 15:04:07;;;;;;;0.70;0.60;;;;;;;;;;5051694;28;20466;-77
2022/03/22 15:06:34;;;;;;;0.90;0.80;;;;;;;;;;5053819;28;20507;-78
2022/03/22 15:09:03;;;;;;;0.70;0.60;;;;;;;;;;5054296;28;20507;-77
2022/03/22 15:11:30;;;;;;;0.80;0.70;;;;;;;;;;5052973;28;20451;-78
2022/03/22 15:13:57;;;;;;;0.80;0.70;;;;;;;;;;5053828;28;20959;-79
2022/03/22 15:16:25;;;;;;;1.30;1.20;;;;;;;;;;5051477;28;20974;-78
2022/03/22 15:18:53;;;;;;;0.90;0.90;;;;;;;;;;5053758;28;20416;-78
2022/03/22 15:21:19;;;;;;;2.40;1.90;;;;;;;;;;5052486;28;20918;-76
2022/03/22 15:23:48;;;;;;;1.10;1.00;;;;;;;;;;5051400;28;20415;-76
2022/03/22 15:26:15;;;;;;;1.33;1.23;;;;;;;;;;5049170;28;20971;-74
2022/03/22 15:28:50;;;;;;;1.00;0.90;;;;;;;;;;5053734;28;20442;-76
2022/03/22 15:31:18;;;;;;;0.90;0.90;;;;;;;;;;5055738;28;20934;-76
2022/03/22 15:33:50;;;;;;;2.43;1.00;;;;;;;;;;5051763;28;20517;-77
2022/03/22 15:36:17;;;;;;;1.63;1.53;;;;;;;;;;5034705;28;20442;-75
2022/03/22 15:39:08;;;;;;;0.80;0.80;;;;;;;;;;5050532;28;20441;-75
2022/03/22 15:41:42;;;;;;;1.67;1.30;;;;;;;;;;5052153;28;20455;-73
2022/03/22 15:44:09;;;;;;;0.70;0.60;;;;;;;;;;5068618;28;20416;-74
2022/03/22 15:46:37;;;;;;;0.80;0.80;;;;;;;;;;5052235;28;20501;-78